createdAt,value
2022-12-12T00:00:58.569Z,15.23
2022-12-12T00:03:31.187Z,8.10
2022-12-12T00:06:03.325Z,5.07
2022-12-12T00:08:31.686Z,15.83
2022-12-12T00:11:00.314Z,16.53
2022-12-12T00:13:28.670Z,15.10
2022-12-12T00:15:57.166Z,15.80
2022-12-12T00:18:25.568Z,17.47
2022-12-12T00:20:55.920Z,15.77
2022-12-12T00:23:24.360Z,20.40
2022-12-12T00:25:56.819Z,20.87
2022-12-12T00:28:25.629Z,18.87
2022-12-12T00:30:54.029Z,9.73
2022-12-12T00:33:22.958Z,18.60
2022-12-12T00:35:51.747Z,18.73
2022-12-12T00:38:22.054Z,17.57
2022-12-12T00:40:50.670Z,13.70
2022-12-12T00:43:18.971Z,17.80
2022-12-12T00:45:47.290Z,21.20
2022-12-12T00:48:15.636Z,21.33
2022-12-12T00:50:44.000Z,21.33
2022-12-12T00:53:13.261Z,20.57
2022-12-12T00:55:42.962Z,17.97
2022-12-12T00:58:11.328Z,23.17
2022-12-12T01:00:41.715Z,21.20
2022-12-12T01:03:10.145Z,17.87
2022-12-12T01:05:38.602Z,18.83
2022-12-12T01:08:07.048Z,26.57
2022-12-12T01:10:35.519Z,17.43
2022-12-12T01:13:05.432Z,15.73
2022-12-12T01:15:34.040Z,19.17
2022-12-12T01:18:02.402Z,22.00
2022-12-12T01:20:30.794Z,19.90
2022-12-12T01:22:59.141Z,24.37
2022-12-12T01:25:27.402Z,26.27
2022-12-12T01:27:55.844Z,21.00
2022-12-12T01:30:25.723Z,22.50
2022-12-12T01:32:55.062Z,14.13
2022-12-12T01:35:24.102Z,24.00
2022-12-12T01:37:52.482Z,17.37
2022-12-12T01:40:22.771Z,13.03
2022-12-12T01:42:51.293Z,10.27
2022-12-12T01:45:38.081Z,17.03
2022-12-12T01:48:07.852Z,12.43
2022-12-12T01:50:36.171Z,18.87
2022-12-12T01:53:04.570Z,16.33
2022-12-12T01:55:32.963Z,11.60
2022-12-12T01:58:01.398Z,11.17
2022-12-12T02:00:29.761Z,14.47
2022-12-12T02:02:58.419Z,13.60
2022-12-12T02:05:29.945Z,11.73
2022-12-12T02:07:59.065Z,14.73
2022-12-12T02:10:27.544Z,23.70
2022-12-12T02:12:59.598Z,19.67
2022-12-12T02:15:29.648Z,22.23
2022-12-12T02:18:05.315Z,9.17
2022-12-12T02:20:42.332Z,16.23
2022-12-12T02:23:28.631Z,19.27
2022-12-12T02:26:21.140Z,10.23
2022-12-12T02:29:08.147Z,3.13
2022-12-12T02:31:42.486Z,2.43
2022-12-12T02:34:15.298Z,9.03
2022-12-12T02:36:47.682Z,16.70
2022-12-12T02:39:20.219Z,14.30
2022-12-12T02:41:52.955Z,8.77
2022-12-12T02:44:24.220Z,9.63
2022-12-12T02:46:58.132Z,9.50
2022-12-12T02:49:29.066Z,1.93
2022-12-12T02:51:58.587Z,4.20
2022-12-12T02:54:27.081Z,1.77
2022-12-12T02:56:56.500Z,3.43
2022-12-12T02:59:26.883Z,2.90
2022-12-12T03:02:14.119Z,2.70
2022-12-12T03:05:09.497Z,18.50
2022-12-12T03:07:49.388Z,19.20
2022-12-12T03:10:22.535Z,13.23
2022-12-12T03:12:52.626Z,14.13
2022-12-12T03:15:24.065Z,17.30
2022-12-12T03:17:56.557Z,18.10
2022-12-12T03:20:27.579Z,14.23
2022-12-12T03:22:58.049Z,16.83
2022-12-12T03:25:28.502Z,21.20
2022-12-12T03:28:00.509Z,18.53
2022-12-12T03:30:30.196Z,21.53
2022-12-12T03:33:01.386Z,20.63
2022-12-12T03:35:35.192Z,5.60
2022-12-12T03:38:06.357Z,7.27
2022-12-12T03:40:39.513Z,3.53
2022-12-12T03:43:10.207Z,22.30
2022-12-12T03:45:40.991Z,20.80
2022-12-12T03:48:12.965Z,20.70
2022-12-12T03:50:46.583Z,16.07
2022-12-12T03:53:19.283Z,18.70
2022-12-12T03:55:49.400Z,20.03
2022-12-12T03:58:20.508Z,20.33
2022-12-12T04:00:50.417Z,16.77
2022-12-12T04:03:21.628Z,14.60
2022-12-12T04:06:11.979Z,17.67
2022-12-12T04:09:00.919Z,26.37
2022-12-12T04:11:48.861Z,26.70
2022-12-12T04:14:20.966Z,6.10
2022-12-12T04:16:52.352Z,5.37
2022-12-12T04:19:45.111Z,16.30
2022-12-12T04:22:37.020Z,24.97
2022-12-12T04:25:06.852Z,22.27
2022-12-12T04:27:37.474Z,16.87
2022-12-12T04:30:07.502Z,20.17
2022-12-12T04:32:37.898Z,23.03
2022-12-12T04:35:08.045Z,28.83
2022-12-12T04:37:39.790Z,28.10
2022-12-12T04:40:09.536Z,25.77
2022-12-12T04:42:39.441Z,18.10
2022-12-12T04:45:10.401Z,25.73
2022-12-12T04:47:40.248Z,15.97
2022-12-12T04:50:10.375Z,30.47
2022-12-12T04:52:41.204Z,29.87
2022-12-12T04:55:11.872Z,19.00
2022-12-12T04:57:43.199Z,31.13
2022-12-12T05:00:13.175Z,17.17
2022-12-12T05:02:43.424Z,10.80
2022-12-12T05:05:15.099Z,26.47
2022-12-12T05:07:46.368Z,28.33
2022-12-12T05:10:15.628Z,23.50
2022-12-12T05:12:44.904Z,12.43
2022-12-12T05:15:13.532Z,15.73
2022-12-12T05:17:44.080Z,18.90
2022-12-12T05:20:12.464Z,22.57
2022-12-12T05:22:40.837Z,26.47
2022-12-12T05:25:11.362Z,29.67
2022-12-12T05:27:40.141Z,16.83
2022-12-12T05:30:09.438Z,29.13
2022-12-12T05:32:37.787Z,10.27
2022-12-12T05:35:06.662Z,29.53
2022-12-12T05:37:35.126Z,33.43
2022-12-12T05:40:03.532Z,31.67
2022-12-12T05:42:33.327Z,30.57
2022-12-12T05:45:02.089Z,33.63
2022-12-12T05:47:30.422Z,23.73
2022-12-12T05:49:58.761Z,31.73
2022-12-12T05:52:27.448Z,21.93
2022-12-12T05:54:56.015Z,30.10
2022-12-12T05:57:24.774Z,32.63
2022-12-12T05:59:54.959Z,31.50
2022-12-12T06:02:26.981Z,35.13
2022-12-12T06:04:58.566Z,33.40
2022-12-12T06:07:27.321Z,27.80
2022-12-12T06:09:58.891Z,35.17
2022-12-12T06:12:27.582Z,33.70
2022-12-12T06:14:57.623Z,31.73
2022-12-12T06:17:31.322Z,38.53
2022-12-12T06:20:01.723Z,35.80
2022-12-12T06:22:30.142Z,38.07
2022-12-12T06:24:58.651Z,38.77
2022-12-12T06:27:27.429Z,31.77
2022-12-12T06:29:57.233Z,20.20
2022-12-12T06:32:25.715Z,30.10
2022-12-12T06:34:54.140Z,37.57
2022-12-12T06:37:22.651Z,29.77
2022-12-12T06:39:51.113Z,41.87
2022-12-12T06:42:19.482Z,40.07
2022-12-12T06:44:48.378Z,36.30
2022-12-12T06:47:18.146Z,42.37
2022-12-12T06:49:46.494Z,39.53
2022-12-12T06:52:14.859Z,51.03
2022-12-12T06:54:43.317Z,34.03
2022-12-12T06:57:11.650Z,43.50
2022-12-12T06:59:40.012Z,33.47
2022-12-12T07:02:08.367Z,19.10
2022-12-12T07:04:38.096Z,33.33
2022-12-12T07:07:06.418Z,48.60
2022-12-12T07:09:35.019Z,27.77
2022-12-12T07:12:03.346Z,33.97
2022-12-12T07:14:31.657Z,41.10
2022-12-12T07:17:00.383Z,28.37
2022-12-12T07:19:28.792Z,40.50
2022-12-12T07:21:59.864Z,46.07
2022-12-12T07:24:29.986Z,40.33
2022-12-12T07:26:58.359Z,35.00
2022-12-12T07:29:26.758Z,40.77
2022-12-12T07:31:55.133Z,39.63
2022-12-12T07:34:23.540Z,14.90
2022-12-12T07:36:51.922Z,38.20
2022-12-12T07:39:21.640Z,42.93
2022-12-12T07:41:49.998Z,41.77
2022-12-12T07:44:18.373Z,33.37
2022-12-12T07:46:46.738Z,28.47
2022-12-12T07:49:15.149Z,27.43
2022-12-12T07:51:48.764Z,34.03
2022-12-12T07:54:17.715Z,30.87
2022-12-12T07:56:47.421Z,33.37
2022-12-12T07:59:16.193Z,37.93
2022-12-12T08:01:44.714Z,29.23
2022-12-12T08:04:13.221Z,33.80
2022-12-12T08:06:41.736Z,36.47
2022-12-12T08:09:10.303Z,36.27
2022-12-12T08:11:46.083Z,33.53
2022-12-12T08:14:16.410Z,34.00
2022-12-12T08:16:44.888Z,32.03
2022-12-12T08:19:15.771Z,32.50
2022-12-12T08:21:44.693Z,35.83
2022-12-12T08:24:13.708Z,32.87
2022-12-12T08:26:42.439Z,35.03
2022-12-12T08:29:11.832Z,38.93
2022-12-12T08:31:41.885Z,39.50
2022-12-12T08:34:10.521Z,44.13
2022-12-12T08:36:39.587Z,42.87
2022-12-12T08:39:09.460Z,33.57
2022-12-12T08:41:39.628Z,28.17
2022-12-12T08:44:08.458Z,38.40
2022-12-12T08:46:37.086Z,37.63
2022-12-12T08:49:07.859Z,37.93
2022-12-12T08:51:36.369Z,34.63
2022-12-12T08:54:04.897Z,38.30
2022-12-12T08:56:36.734Z,31.90
2022-12-12T08:59:05.809Z,35.10
2022-12-12T09:01:34.555Z,34.47
2022-12-12T09:04:03.021Z,33.87
2022-12-12T09:06:32.903Z,28.10
2022-12-12T09:09:01.662Z,33.93
2022-12-12T09:11:30.708Z,33.47
2022-12-12T09:13:59.387Z,31.97
2022-12-12T09:16:30.034Z,30.07
2022-12-12T09:18:58.740Z,30.37
2022-12-12T09:21:27.305Z,24.87
2022-12-12T09:23:57.300Z,8.93
2022-12-12T09:26:25.815Z,11.47
2022-12-12T09:28:54.271Z,26.67
2022-12-12T09:31:22.875Z,24.10
2022-12-12T09:33:51.745Z,19.23
2022-12-12T09:36:21.080Z,10.50
2022-12-12T09:38:49.875Z,25.53
2022-12-12T09:41:20.880Z,9.93
2022-12-12T09:43:56.436Z,24.80
2022-12-12T09:46:37.633Z,19.23
2022-12-12T09:49:13.973Z,22.90
2022-12-12T09:51:43.607Z,24.80
2022-12-12T09:54:15.052Z,18.33
2022-12-12T09:56:49.777Z,23.70
2022-12-12T09:59:21.761Z,24.13
2022-12-12T10:01:54.841Z,18.67
2022-12-12T10:04:30.464Z,25.43
2022-12-12T10:07:04.096Z,9.40
2022-12-12T10:09:58.791Z,9.93
2022-12-12T10:12:35.326Z,12.67
2022-12-12T10:15:05.145Z,4.80
2022-12-12T10:17:36.628Z,12.17
2022-12-12T10:20:07.171Z,10.53
2022-12-12T10:22:41.428Z,10.43
2022-12-12T10:25:19.534Z,10.33
2022-12-12T10:27:52.952Z,14.10
2022-12-12T10:30:22.155Z,27.57
2022-12-12T10:33:08.570Z,25.47
2022-12-12T10:35:43.719Z,16.73
2022-12-12T10:38:20.348Z,22.77
2022-12-12T10:40:55.488Z,25.90
2022-12-12T10:43:28.182Z,25.80
2022-12-12T10:46:10.170Z,22.17
2022-12-12T10:48:38.875Z,23.67
2022-12-12T10:51:09.125Z,13.00
2022-12-12T10:53:38.047Z,13.23
2022-12-12T10:56:08.892Z,21.00
2022-12-12T10:58:40.177Z,19.13
2022-12-12T11:01:13.547Z,19.47
2022-12-12T11:03:47.902Z,18.27
2022-12-12T11:06:20.474Z,3.10
2022-12-12T11:09:07.924Z,5.97
2022-12-12T11:11:41.800Z,2.37
2022-12-12T11:14:23.764Z,9.37
2022-12-12T11:16:52.757Z,11.53
2022-12-12T11:19:23.227Z,19.83
2022-12-12T11:21:52.064Z,12.40
2022-12-12T11:24:22.284Z,6.80
2022-12-12T11:27:06.821Z,4.17
2022-12-12T11:29:48.992Z,5.37
2022-12-12T11:32:18.501Z,18.97
2022-12-12T11:34:52.392Z,15.80
2022-12-12T11:40:36.975Z,21.47
2022-12-12T11:43:27.556Z,16.40
2022-12-12T11:46:04.629Z,14.37
2022-12-12T11:49:21.839Z,12.90
2022-12-12T11:52:07.833Z,18.70
2022-12-12T11:55:18.343Z,17.40
2022-12-12T11:58:15.331Z,19.03
2022-12-12T12:00:55.439Z,13.23
2022-12-12T12:03:43.187Z,20.47
2022-12-12T12:06:24.755Z,16.37
2022-12-12T12:09:13.927Z,17.20
2022-12-12T12:11:47.332Z,11.50
2022-12-12T12:14:24.765Z,5.57
2022-12-12T12:16:58.820Z,20.13
2022-12-12T12:19:33.741Z,18.23
2022-12-12T12:22:06.594Z,16.93
2022-12-12T12:24:56.427Z,20.93
2022-12-12T12:27:28.302Z,12.20
2022-12-12T12:30:17.415Z,20.80
2022-12-12T12:32:59.418Z,22.30
2022-12-12T12:36:41.405Z,8.67
2022-12-12T12:42:38.611Z,13.30
2022-12-12T12:45:19.102Z,15.80
2022-12-12T12:47:49.363Z,17.60
2022-12-12T12:50:19.456Z,18.43
2022-12-12T12:52:52.019Z,17.77
2022-12-12T12:55:25.549Z,11.37
2022-12-12T12:57:54.358Z,15.67
2022-12-12T13:00:24.357Z,13.57
2022-12-12T13:06:17.398Z,17.23
2022-12-12T13:21:54.891Z,18.50
2022-12-12T13:24:59.596Z,12.27
2022-12-12T13:28:14.153Z,18.10
2022-12-12T13:31:30.554Z,0.97
2022-12-12T13:41:06.434Z,10.10
2022-12-12T13:46:44.779Z,1.53
2022-12-12T13:49:20.337Z,11.10
2022-12-12T13:52:25.295Z,11.00
2022-12-12T13:55:30.085Z,14.90
2022-12-12T13:58:32.834Z,11.63
2022-12-12T14:01:33.478Z,5.87
2022-12-12T14:04:53.574Z,12.33
2022-12-12T14:07:25.596Z,8.10
2022-12-12T14:09:55.430Z,11.47
2022-12-12T14:12:31.172Z,2.70
2022-12-12T14:15:02.536Z,10.33
2022-12-12T14:17:40.126Z,17.97
2022-12-12T14:20:25.012Z,19.07
2022-12-12T14:23:12.958Z,17.70
2022-12-12T14:25:42.494Z,14.23
2022-12-12T14:28:18.624Z,7.03
2022-12-12T14:30:49.082Z,9.03
2022-12-12T14:33:38.595Z,12.10
2022-12-12T14:36:10.034Z,15.23
2022-12-12T14:38:44.471Z,8.47
2022-12-12T14:41:16.828Z,11.87
2022-12-12T14:43:48.627Z,13.47
2022-12-12T14:46:42.315Z,6.67
2022-12-12T14:49:15.055Z,10.23
2022-12-12T14:51:45.096Z,16.60
2022-12-12T14:54:17.532Z,14.70
2022-12-12T14:56:52.420Z,6.13
2022-12-12T14:59:23.412Z,13.57
2022-12-12T15:01:53.153Z,8.90
2022-12-12T15:04:22.872Z,9.77
2022-12-12T15:06:52.540Z,19.27
2022-12-12T15:09:25.837Z,20.50
2022-12-12T15:12:01.335Z,16.23
2022-12-12T15:14:54.343Z,8.33
2022-12-12T15:17:35.437Z,10.97
2022-12-12T15:20:26.951Z,13.17
2022-12-12T15:23:29.542Z,11.83
2022-12-12T15:50:02.991Z,19.07
2022-12-12T16:01:02.939Z,14.10
2022-12-12T16:08:31.800Z,2.30
2022-12-12T16:11:52.423Z,5.73
2022-12-12T16:19:01.179Z,14.10
2022-12-12T16:22:15.576Z,15.67
2022-12-12T16:28:58.323Z,13.67
2022-12-12T16:32:04.089Z,16.60
2022-12-12T16:38:31.128Z,2.50
2022-12-12T16:44:36.279Z,14.03
2022-12-12T16:50:41.474Z,19.43
2022-12-12T16:53:41.360Z,19.70
2022-12-12T16:56:26.291Z,22.43
2022-12-12T17:03:01.982Z,11.50
2022-12-12T17:06:21.303Z,16.37
2022-12-12T17:09:48.810Z,23.27
2022-12-12T17:13:07.904Z,16.50
2022-12-12T17:16:13.323Z,21.40
2022-12-12T17:26:02.454Z,14.17
2022-12-12T17:29:08.142Z,17.93
2022-12-12T17:36:10.165Z,4.47
2022-12-12T17:39:28.582Z,1.37
2022-12-12T17:45:34.956Z,1.07
2022-12-12T17:48:04.691Z,1.37
2022-12-12T17:50:37.141Z,1.33
2022-12-12T17:53:09.770Z,11.77
2022-12-12T17:55:54.170Z,18.73
2022-12-12T17:58:29.597Z,23.43
2022-12-12T18:00:58.392Z,17.60
2022-12-12T18:03:30.573Z,18.40
2022-12-12T18:06:01.800Z,21.30
2022-12-12T18:08:30.347Z,19.67
2022-12-12T18:11:00.430Z,23.97
2022-12-12T18:13:28.838Z,23.70
2022-12-12T18:15:57.303Z,27.13
2022-12-12T18:18:25.935Z,21.47
2022-12-12T18:20:54.546Z,15.93
2022-12-12T18:23:23.048Z,17.60
2022-12-12T18:25:51.463Z,16.93
2022-12-12T18:28:31.442Z,20.23
2022-12-12T18:30:59.950Z,17.57
2022-12-12T18:33:29.458Z,19.20
2022-12-12T18:36:02.291Z,20.20
2022-12-12T18:38:31.029Z,15.40
2022-12-12T18:40:59.400Z,20.83
2022-12-12T18:43:29.674Z,17.27
2022-12-12T18:46:02.556Z,23.73
2022-12-12T18:48:33.448Z,24.77
2022-12-12T18:51:06.028Z,23.77
2022-12-12T18:53:34.991Z,19.03
2022-12-12T18:56:06.896Z,19.93
2022-12-12T18:58:37.643Z,21.00
2022-12-12T19:01:06.334Z,19.53
2022-12-12T19:03:35.501Z,18.13
2022-12-12T19:06:05.995Z,14.07
2022-12-12T19:08:34.555Z,18.27
2022-12-12T19:11:05.343Z,12.50
2022-12-12T19:13:33.769Z,13.90
2022-12-12T19:16:06.371Z,23.50
2022-12-12T19:18:35.102Z,22.03
2022-12-12T19:21:05.485Z,17.93
2022-12-12T19:23:33.957Z,14.93
2022-12-12T19:26:05.493Z,14.43
2022-12-12T19:28:33.959Z,16.03
2022-12-12T19:31:03.015Z,21.43
2022-12-12T19:33:32.737Z,19.53
2022-12-12T19:36:01.175Z,20.37
2022-12-12T19:38:29.536Z,21.23
2022-12-12T19:40:57.941Z,17.60
2022-12-12T19:43:26.344Z,11.93
2022-12-12T19:46:02.921Z,11.27
2022-12-12T19:48:32.714Z,16.40
2022-12-12T19:51:05.473Z,15.57
2022-12-12T19:53:33.966Z,13.83
2022-12-12T19:56:02.357Z,14.40
2022-12-12T19:58:35.125Z,19.77
2022-12-12T20:01:07.453Z,16.53
2022-12-12T20:03:37.353Z,17.07
2022-12-12T20:06:06.496Z,19.63
2022-12-12T20:08:35.675Z,21.43
2022-12-12T20:11:04.874Z,22.50
2022-12-12T20:13:33.304Z,21.03
2022-12-12T20:16:05.533Z,22.40
2022-12-12T20:18:34.019Z,10.93
2022-12-12T20:21:03.867Z,12.40
2022-12-12T20:23:32.585Z,6.27
2022-12-12T20:26:03.494Z,1.33
2022-12-12T20:28:31.935Z,2.57
2022-12-12T20:31:07.437Z,2.20
2022-12-12T20:33:36.048Z,1.63
2022-12-12T20:36:06.718Z,1.43
2022-12-12T20:38:35.478Z,3.90
2022-12-12T20:41:03.858Z,0.90
2022-12-12T20:43:32.240Z,2.80
2022-12-12T20:46:00.731Z,14.10
2022-12-12T20:48:29.083Z,13.47
2022-12-12T20:50:59.582Z,14.60
2022-12-12T20:53:34.858Z,18.33
2022-12-12T20:56:10.674Z,17.13
2022-12-12T20:58:39.961Z,18.33
2022-12-12T21:01:11.739Z,17.20
2022-12-12T21:03:40.379Z,14.63
2022-12-12T21:06:19.234Z,18.57
2022-12-12T21:08:49.354Z,13.97
2022-12-12T21:11:18.948Z,13.17
2022-12-12T21:13:49.103Z,17.57
2022-12-12T21:16:19.492Z,15.47
2022-12-12T21:18:48.705Z,11.83
2022-12-12T21:21:17.270Z,4.77
2022-12-12T21:23:45.697Z,1.00
2022-12-12T21:26:19.688Z,3.07
2022-12-12T21:28:50.330Z,6.47
2022-12-12T21:31:19.921Z,3.93
2022-12-12T21:33:48.755Z,3.80
2022-12-12T21:36:17.590Z,1.07
2022-12-12T21:38:46.057Z,1.80
2022-12-12T21:41:16.368Z,2.43
2022-12-12T21:43:46.155Z,1.13
2022-12-12T21:46:15.389Z,1.83
2022-12-12T21:48:43.876Z,0.90
2022-12-12T21:51:14.873Z,3.17
2022-12-12T21:53:43.489Z,6.27
2022-12-12T21:56:12.585Z,3.43
2022-12-12T21:58:43.027Z,3.00
2022-12-12T22:01:12.360Z,1.40
2022-12-12T22:03:40.954Z,2.70
2022-12-12T22:06:12.747Z,3.10
2022-12-12T22:08:41.242Z,2.40
2022-12-12T22:11:10.403Z,2.20
2022-12-12T22:13:40.292Z,10.80
2022-12-12T22:16:12.876Z,5.90
2022-12-12T22:18:41.330Z,14.13
2022-12-12T22:21:10.473Z,11.70
2022-12-12T22:23:39.745Z,6.40
2022-12-12T22:26:14.391Z,9.43
2022-12-12T22:28:43.910Z,15.83
2022-12-12T22:31:13.772Z,18.90
2022-12-12T22:33:42.124Z,22.37
2022-12-12T22:36:11.333Z,23.07
2022-12-12T22:38:39.943Z,17.83
2022-12-12T22:41:09.066Z,12.67
2022-12-12T22:43:37.438Z,6.50
2022-12-12T22:46:06.576Z,6.27
2022-12-12T22:48:36.898Z,20.83
2022-12-12T22:51:13.106Z,21.93
2022-12-12T22:53:44.415Z,9.03
2022-12-12T22:56:13.288Z,10.80
2022-12-12T22:58:42.074Z,5.07
2022-12-12T23:01:11.198Z,3.10
2022-12-12T23:03:41.116Z,6.17
2022-12-12T23:06:11.224Z,9.47
2022-12-12T23:08:39.601Z,18.03
2022-12-12T23:11:08.788Z,17.23
2022-12-12T23:13:37.612Z,19.97
2022-12-12T23:16:06.483Z,20.03
2022-12-12T23:18:35.036Z,23.83
2022-12-12T23:21:04.980Z,21.17
2022-12-12T23:23:34.324Z,20.33
2022-12-12T23:26:03.765Z,22.60
2022-12-12T23:28:32.313Z,20.00
2022-12-12T23:31:00.710Z,21.70
2022-12-12T23:33:29.192Z,20.97
2022-12-12T23:35:57.615Z,21.70
2022-12-12T23:38:27.365Z,19.77
2022-12-12T23:40:55.745Z,17.00
2022-12-12T23:43:24.183Z,22.40
2022-12-12T23:45:52.631Z,19.37
2022-12-12T23:48:20.987Z,21.60
2022-12-12T23:50:49.618Z,21.50
2022-12-12T23:53:18.053Z,16.97
2022-12-12T23:55:48.181Z,15.80
2022-12-12T23:58:16.741Z,19.20
